Observations for LEEDS AND BRADFORD, United Kingdom (EGNM)

EGNM 220520Z 00000KT 0700 R14/P1500 FG BKN001 15/15 Q1019   
EGNM 220450Z VRB01KT 0800 R14/P1500 FG VV/// 15/15 Q1019
EGNM 220420Z 12002KT 0300 FG VV/// 15/15 Q1019  
EGNM 220350Z 10003KT 0200 FG VV/// 15/15 Q1019  
EGNM 220320Z 12003KT 0300 FG VV/// 15/15 Q1019  
EGNM 220250Z 14004KT 0300 FG VV/// 15/15 Q1019  
EGNM 220220Z 13003KT 0400 FG VV/// 15/15 Q1019  
EGNM 220150Z 16001KT 0600 FG VV/// 15/15 Q1020  
EGNM 220120Z 15002KT 0500 FG VV/// 15/15 Q1020  
EGNM 220050Z 14002KT 0600 FG VV/// 15/15 Q1020  
EGNM 220020Z VRB02KT 1100 R32/1300 BR BKN002 15/15 Q1020
EGNM 212350Z VRB03KT 1800 BR BKN002 15/15 Q1020 
EGNM 212320Z 16003KT 3200 1200E R32/P1500 BR BKN002 15/15 Q1020 
EGNM 212250Z 17003KT 2500 -DZ BR BKN002 15/15 Q1020 
EGNM 212220Z 18004KT 150V220 3500 1600E -DZ BR OVC002 15/15 Q1020   
EGNM 212150Z VRB03KT 4000 -DZ BR OVC002 15/15 Q1020 
EGNM 212120Z 16004KT 130V200 9999 -DZ SCT006 BKN017 15/15 Q1020 
EGNM 212050Z 16004KT 9000 -DZ FEW003 BKN011 15/15 Q1020 
EGNM 212020Z VRB02KT 9999 -RADZ SCT009 BKN020 15/15 Q1020   
EGNM 211950Z 15003KT 4000 -RA BR SCT005 BKN009 15/15 Q1020  
EGNM 211920Z 15003KT 9999 -RA BKN014 15/15 Q1020
EGNM 211850Z 16004KT 9999 -RA BKN015 16/14 Q1020
EGNM 211820Z 15003KT 9999 -DZ BKN017 16/14 Q1020
EGNM 211750Z 16004KT 9999 SCT016 BKN020 16/14 Q1020 
EGNM 211720Z 16004KT 9999 SCT015 BKN021 16/14 Q1020 
EGNM 211650Z 17006KT 140V200 9999 -SHRA SCT015 BKN021 16/14 Q1020   
EGNM 211620Z 17006KT 9999 SCT015 BKN020 16/14 Q1020 
EGNM 211550Z 16006KT 120V190 9999 BKN017 16/14 Q1020
EGNM 211520Z 15008KT 9999 BKN018 17/13 Q1020
EGNM 211450Z 16007KT 130V200 9999 BKN017 17/13 Q1020
EGNM 211420Z 16008KT 9999 BKN019 17/13 Q1020
EGNM 211350Z 15009KT 110V200 9999 BKN019 17/13 Q1020
EGNM 211320Z 17007KT 140V220 9999 BKN019 17/13 Q1020
EGNM 211250Z 15007KT 110V190 9999 BKN019 17/13 Q1020
EGNM 211220Z 15008KT 110V200 9999 BKN020 17/13 Q1020
EGNM 211150Z 15007KT 120V210 9999 BKN020 17/13 Q1021
EGNM 211120Z 15008KT 110V200 9999 BKN021 17/12 Q1021
EGNM 211050Z 14007KT 090V200 9999 SCT018 16/12 Q1021
EGNM 211020Z 14008KT 100V180 9999 SCT016 16/12 Q1021
EGNM 210950Z 14009KT 100V170 9999 SCT015 16/12 Q1021
EGNM 210920Z 13006KT 100V160 9999 FEW008 SCT012 15/12 Q1022 
EGNM 210850Z 12006KT 090V150 9999 FEW008 SCT012 15/12 Q1021 
EGNM 210820Z 10004KT 060V170 9999 FEW008 SCT012 13/12 Q1021 
EGNM 210750Z 10004KT 050V130 9999 SCT012 12/11 Q1021
EGNM 210720Z VRB02KT CAVOK 12/10 Q1021  
EGNM 210650Z VRB03KT CAVOK 11/09 Q1021  
EGNM 210620Z VRB03KT CAVOK 10/08 Q1021  
EGNM 210550Z 08004KT 050V110 CAVOK 10/08 Q1021  
EGNM 210520Z 05002KT CAVOK 10/08 Q1021  
EGNM 210450Z VRB01KT CAVOK 10/08 Q1021